createdAt,value
2018-07-27T00:00:07.528Z,96.1
2018-07-27T00:02:10.976Z,97.5
2018-07-27T00:03:11.691Z,97.0
2018-07-27T00:04:12.421Z,96.0
2018-07-27T00:05:13.155Z,94.3
2018-07-27T00:06:13.886Z,94.5
2018-07-27T00:07:14.607Z,94.7
2018-07-27T00:08:15.336Z,95.4
2018-07-27T00:09:16.061Z,95.7
2018-07-27T00:10:16.783Z,95.9
2018-07-27T00:11:17.517Z,95.8
2018-07-27T00:12:18.258Z,95.5
2018-07-27T00:13:19.243Z,95.4
2018-07-27T00:14:19.966Z,95.0
2018-07-27T00:15:21.060Z,94.5
2018-07-27T00:16:21.790Z,95.0
2018-07-27T00:17:22.513Z,94.7
2018-07-27T00:18:23.250Z,94.3
2018-07-27T00:19:23.990Z,94.6
2018-07-27T00:20:24.709Z,93.3
2018-07-27T00:21:25.438Z,93.1
2018-07-27T00:22:26.418Z,92.8
2018-07-27T00:23:27.163Z,93.7
2018-07-27T00:24:27.893Z,93.1
2018-07-27T00:25:28.616Z,94.2
2018-07-27T00:26:29.348Z,94.6
2018-07-27T00:27:30.386Z,94.3
2018-07-27T00:28:31.122Z,94.1
2018-07-27T00:29:31.857Z,94.0
2018-07-27T00:30:32.579Z,94.3
2018-07-27T00:31:33.310Z,94.8
2018-07-27T00:32:34.395Z,94.2
2018-07-27T00:33:35.129Z,94.0
2018-07-27T00:34:35.855Z,94.0
2018-07-27T00:35:36.577Z,93.1
2018-07-27T00:36:37.315Z,93.2
2018-07-27T00:37:38.303Z,92.8
2018-07-27T00:38:39.032Z,92.8
2018-07-27T00:39:39.777Z,92.4
2018-07-27T00:40:40.527Z,92.7
2018-07-27T00:41:41.261Z,93.1
2018-07-27T00:42:41.992Z,93.0
2018-07-27T00:43:42.733Z,93.3
2018-07-27T00:44:43.711Z,93.1
2018-07-27T00:45:44.453Z,93.1
2018-07-27T00:46:45.181Z,92.8
2018-07-27T00:47:45.902Z,92.6
2018-07-27T00:48:46.638Z,92.0
2018-07-27T00:49:47.375Z,92.4
2018-07-27T00:50:48.098Z,92.1
2018-07-27T00:51:48.823Z,91.8
2018-07-27T00:52:49.554Z,91.3
2018-07-27T00:53:50.303Z,90.3
2018-07-27T00:54:51.031Z,90.6
2018-07-27T00:55:51.748Z,90.4
2018-07-27T00:56:52.474Z,91.1
2018-07-27T00:57:53.205Z,91.2
2018-07-27T00:58:54.181Z,90.6
2018-07-27T00:59:55.175Z,90.8
2018-07-27T01:00:55.922Z,90.2
2018-07-27T01:01:56.658Z,90.4
2018-07-27T01:02:57.384Z,90.6
2018-07-27T01:03:58.105Z,90.1
2018-07-27T01:04:59.089Z,89.9
2018-07-27T01:06:00.123Z,89.0
2018-07-27T01:07:00.862Z,88.9
2018-07-27T01:08:01.841Z,88.1
2018-07-27T01:09:02.829Z,88.1
2018-07-27T01:10:03.588Z,88.1
2018-07-27T01:11:04.315Z,88.0
2018-07-27T01:12:05.301Z,87.7
2018-07-27T01:13:06.051Z,87.6
2018-07-27T01:14:06.772Z,88.5
2018-07-27T01:15:07.546Z,88.0
2018-07-27T01:16:08.276Z,88.9
2018-07-27T01:17:09.002Z,88.4
2018-07-27T01:18:09.737Z,88.9
2018-07-27T01:19:10.708Z,88.8
2018-07-27T01:20:11.677Z,88.7
2018-07-27T01:21:12.401Z,88.8
2018-07-27T01:22:13.123Z,88.7
2018-07-27T01:23:13.849Z,88.7
2018-07-27T01:24:14.590Z,89.1
2018-07-27T01:25:15.329Z,88.8
2018-07-27T01:26:16.103Z,88.8
2018-07-27T01:27:16.822Z,88.2
2018-07-27T01:28:17.560Z,88.5
2018-07-27T01:29:18.283Z,88.2
2018-07-27T01:30:19.021Z,87.3
2018-07-27T01:31:19.737Z,87.7
2018-07-27T01:32:20.461Z,88.3
2018-07-27T01:33:21.442Z,87.1
2018-07-27T01:34:22.416Z,87.4
2018-07-27T01:35:23.142Z,87.6
2018-07-27T01:36:23.868Z,87.5
2018-07-27T01:37:24.843Z,86.3
2018-07-27T01:38:25.626Z,87.2
2018-07-27T01:39:26.347Z,87.7
2018-07-27T01:40:27.076Z,87.3
2018-07-27T01:41:28.050Z,86.9
2018-07-27T01:42:28.775Z,86.9
2018-07-27T01:43:29.508Z,86.7
2018-07-27T01:44:30.221Z,86.7
2018-07-27T01:45:31.184Z,87.0
2018-07-27T01:46:31.941Z,87.2
2018-07-27T01:47:32.669Z,87.4
2018-07-27T01:48:33.447Z,86.6
2018-07-27T01:49:34.200Z,86.2
2018-07-27T01:50:34.922Z,86.5
2018-07-27T01:51:35.655Z,86.4
2018-07-27T01:52:36.374Z,85.8
2018-07-27T01:53:37.108Z,85.6
2018-07-27T01:54:37.828Z,86.1
2018-07-27T01:55:38.801Z,85.5
2018-07-27T01:56:39.530Z,85.9
2018-07-27T01:57:40.269Z,86.1
2018-07-27T01:58:41.026Z,85.7
2018-07-27T01:59:41.821Z,86.0
2018-07-27T02:00:42.551Z,85.2
2018-07-27T02:01:43.280Z,84.5
2018-07-27T02:02:44.000Z,84.7
2018-07-27T02:03:44.719Z,84.6
2018-07-27T02:04:45.746Z,84.5
2018-07-27T02:05:46.483Z,83.8
2018-07-27T02:06:47.210Z,83.1
2018-07-27T02:07:47.943Z,83.1
2018-07-27T02:08:48.666Z,83.1
2018-07-27T02:09:49.408Z,84.0
2018-07-27T02:10:50.380Z,84.6
2018-07-27T02:11:51.098Z,85.3
2018-07-27T02:12:51.820Z,85.0
2018-07-27T02:13:52.539Z,84.6
2018-07-27T02:14:53.289Z,83.4
2018-07-27T02:15:54.032Z,84.1
2018-07-27T02:16:54.760Z,83.3
2018-07-27T02:17:55.489Z,84.8
2018-07-27T02:18:56.205Z,83.7
2018-07-27T02:19:56.931Z,83.9
2018-07-27T02:20:57.665Z,82.4
2018-07-27T02:21:58.391Z,82.1
2018-07-27T02:22:59.117Z,83.1
2018-07-27T02:23:59.836Z,83.2
2018-07-27T02:25:00.573Z,82.8
2018-07-27T02:26:01.297Z,82.7
2018-07-27T02:27:02.009Z,81.6
2018-07-27T02:28:02.736Z,82.1
2018-07-27T02:29:03.822Z,82.1
2018-07-27T02:30:04.540Z,82.0
2018-07-27T02:31:05.271Z,81.0
2018-07-27T02:32:05.990Z,82.6
2018-07-27T02:33:06.722Z,82.1
2018-07-27T02:34:07.512Z,82.1
2018-07-27T02:35:08.239Z,81.6
2018-07-27T02:36:08.964Z,80.6
2018-07-27T02:37:09.683Z,79.7
2018-07-27T02:38:10.649Z,79.9
2018-07-27T02:39:11.379Z,80.3
2018-07-27T02:40:12.365Z,79.6
2018-07-27T02:41:13.083Z,79.0
2018-07-27T02:42:14.332Z,78.4
2018-07-27T02:43:15.047Z,79.6
2018-07-27T02:44:15.770Z,78.3
2018-07-27T02:45:16.742Z,78.9
2018-07-27T02:46:17.729Z,78.7
2018-07-27T02:47:18.434Z,77.6
2018-07-27T02:48:19.153Z,78.4
2018-07-27T02:49:19.870Z,78.0
2018-07-27T02:50:20.834Z,77.8
2018-07-27T02:51:21.606Z,78.3
2018-07-27T02:52:22.324Z,78.7
2018-07-27T02:53:23.049Z,78.7
2018-07-27T02:54:23.842Z,78.6
2018-07-27T02:55:24.567Z,77.6
2018-07-27T02:56:25.297Z,78.4
2018-07-27T02:57:26.288Z,78.7
2018-07-27T02:58:27.008Z,77.3
2018-07-27T02:59:27.728Z,78.3
2018-07-27T03:00:28.801Z,76.6
2018-07-27T03:01:29.536Z,78.2
2018-07-27T03:02:30.267Z,77.8
2018-07-27T03:03:30.993Z,76.0
2018-07-27T03:04:31.717Z,76.9
2018-07-27T03:05:32.692Z,76.2
2018-07-27T03:06:33.416Z,76.6
2018-07-27T03:07:34.389Z,76.0
2018-07-27T03:08:35.117Z,75.5
2018-07-27T03:09:35.935Z,76.7
2018-07-27T03:10:36.563Z,76.3
2018-07-27T03:11:37.543Z,75.9
2018-07-27T03:12:38.269Z,76.1
2018-07-27T03:13:38.998Z,76.3
2018-07-27T03:14:39.710Z,75.0
2018-07-27T03:15:40.434Z,75.1
2018-07-27T03:16:41.158Z,75.0
2018-07-27T03:17:42.147Z,75.4
2018-07-27T03:18:42.866Z,76.0
2018-07-27T03:19:43.593Z,75.4
2018-07-27T03:20:44.321Z,75.6
2018-07-27T03:21:45.056Z,76.7
2018-07-27T03:22:45.829Z,76.2
2018-07-27T03:23:46.546Z,76.1
2018-07-27T03:24:47.282Z,76.4
2018-07-27T03:25:48.013Z,74.4
2018-07-27T03:26:48.742Z,73.6
2018-07-27T03:27:49.464Z,73.5
2018-07-27T03:28:50.215Z,73.9
2018-07-27T03:29:50.933Z,74.1
2018-07-27T03:30:51.669Z,73.7
2018-07-27T03:31:52.443Z,73.2
2018-07-27T03:32:53.177Z,73.7
2018-07-27T03:33:53.910Z,73.8
2018-07-27T03:34:54.645Z,73.7
2018-07-27T03:35:55.381Z,72.7
2018-07-27T03:36:56.166Z,73.0
2018-07-27T03:37:56.906Z,72.7
2018-07-27T03:38:57.630Z,72.3
2018-07-27T03:39:58.361Z,71.5
2018-07-27T03:40:59.099Z,71.1
2018-07-27T03:41:59.940Z,70.2
2018-07-27T03:43:00.623Z,70.8
2018-07-27T03:44:01.351Z,71.3
2018-07-27T03:45:02.332Z,70.7
2018-07-27T03:46:03.071Z,71.4
2018-07-27T03:47:03.846Z,70.6
2018-07-27T03:48:04.569Z,70.3
2018-07-27T03:49:05.293Z,70.1
2018-07-27T03:50:06.033Z,68.9
2018-07-27T03:51:06.759Z,68.6
2018-07-27T03:52:07.724Z,68.7
2018-07-27T03:53:08.458Z,70.1
2018-07-27T03:54:09.196Z,69.0
2018-07-27T03:55:09.930Z,69.5
2018-07-27T03:56:10.674Z,70.0
2018-07-27T03:57:11.469Z,69.0
2018-07-27T03:58:12.199Z,68.6
2018-07-27T03:59:12.932Z,69.1
2018-07-27T04:00:14.170Z,68.1
2018-07-27T04:01:14.897Z,68.1
2018-07-27T04:02:15.617Z,69.0
2018-07-27T04:03:16.400Z,68.7
2018-07-27T04:04:17.127Z,69.3
2018-07-27T04:05:19.004Z,69.9
2018-07-27T04:06:19.739Z,69.9
2018-07-27T04:07:20.785Z,68.4
2018-07-27T04:08:21.615Z,70.0
2018-07-27T04:09:22.375Z,69.9
2018-07-27T04:10:23.199Z,69.5
2018-07-27T04:11:24.026Z,70.3
2018-07-27T04:12:25.027Z,69.6
2018-07-27T04:13:25.764Z,70.3
2018-07-27T04:14:26.668Z,67.7
2018-07-27T04:15:27.513Z,68.2
2018-07-27T04:16:28.261Z,68.5
2018-07-27T04:17:29.458Z,68.0
2018-07-27T04:18:30.215Z,68.5
2018-07-27T04:19:31.114Z,67.9
2018-07-27T04:20:31.837Z,68.5
2018-07-27T04:21:32.959Z,68.6
2018-07-27T04:22:34.239Z,69.5
2018-07-27T04:23:34.943Z,69.2
2018-07-27T04:24:35.760Z,68.8
2018-07-27T04:25:36.871Z,69.5
2018-07-27T04:26:37.979Z,69.9
2018-07-27T04:27:38.797Z,68.4
2018-07-27T04:28:39.644Z,68.6
2018-07-27T04:29:40.517Z,70.7
2018-07-27T04:30:41.277Z,68.7
2018-07-27T04:31:42.250Z,67.2
2018-07-27T04:32:43.390Z,68.4
2018-07-27T04:33:44.183Z,67.0
2018-07-27T04:34:45.131Z,67.1
2018-07-27T04:35:45.939Z,67.4
2018-07-27T04:36:46.697Z,66.7
2018-07-27T04:37:47.914Z,66.4
2018-07-27T04:38:49.583Z,68.0
2018-07-27T04:39:50.340Z,68.4
2018-07-27T04:40:51.162Z,68.5
2018-07-27T04:41:51.899Z,67.5
2018-07-27T04:42:52.696Z,67.4
2018-07-27T04:43:53.366Z,68.3
2018-07-27T04:44:54.100Z,69.3
2018-07-27T04:45:54.825Z,69.4
2018-07-27T04:46:55.852Z,69.6
2018-07-27T04:47:56.585Z,69.0
2018-07-27T04:48:57.316Z,69.1
2018-07-27T04:49:58.299Z,68.5
2018-07-27T04:50:59.052Z,69.2
2018-07-27T04:51:59.839Z,70.3
2018-07-27T04:53:00.580Z,71.5
2018-07-27T04:54:01.308Z,72.3
2018-07-27T04:55:02.044Z,72.5
2018-07-27T04:56:02.761Z,73.5
2018-07-27T04:57:03.496Z,73.6
2018-07-27T04:58:04.474Z,74.1
2018-07-27T04:59:05.207Z,74.2
2018-07-27T05:00:05.944Z,73.8
2018-07-27T05:01:06.664Z,74.7
2018-07-27T05:02:07.403Z,74.6
2018-07-27T05:03:08.166Z,76.2
2018-07-27T05:04:08.886Z,76.0
2018-07-27T05:05:09.622Z,75.9
2018-07-27T05:06:10.378Z,78.0
2018-07-27T05:07:11.098Z,82.5
2018-07-27T05:08:11.842Z,76.7
2018-07-27T05:09:12.625Z,79.1
2018-07-27T05:10:13.368Z,80.0
2018-07-27T05:11:14.089Z,81.0
2018-07-27T05:12:15.064Z,82.8
2018-07-27T05:13:15.805Z,82.2
2018-07-27T05:14:16.600Z,82.9
2018-07-27T05:15:17.323Z,82.5
2018-07-27T05:16:18.059Z,84.0
2018-07-27T05:17:18.795Z,83.9
2018-07-27T05:18:19.577Z,84.7
2018-07-27T05:19:20.327Z,84.7
2018-07-27T05:20:21.074Z,83.5
2018-07-27T05:21:21.800Z,85.2
2018-07-27T05:22:22.546Z,94.3
2018-07-27T05:23:23.267Z,94.5
2018-07-27T05:24:24.290Z,89.7
2018-07-27T05:25:25.030Z,89.8
2018-07-27T05:26:25.764Z,89.5
2018-07-27T05:27:26.495Z,87.9
2018-07-27T05:28:27.231Z,89.2
2018-07-27T05:29:27.953Z,89.6
2018-07-27T05:30:28.723Z,89.5
2018-07-27T05:31:29.717Z,89.8
2018-07-27T05:32:30.437Z,92.6
2018-07-27T05:33:31.170Z,92.9
2018-07-27T05:34:31.907Z,94.0
2018-07-27T05:35:32.654Z,95.9
2018-07-27T05:36:33.385Z,98.6
2018-07-27T05:37:34.099Z,99.1
2018-07-27T05:38:34.845Z,98.9
2018-07-27T05:39:35.588Z,99.8
2018-07-27T05:40:36.343Z,100.0
2018-07-27T05:41:37.075Z,100.0
2018-07-27T05:42:37.807Z,100.0
2018-07-27T05:43:38.791Z,100.0
2018-07-27T05:44:39.538Z,100.0
2018-07-27T05:45:40.304Z,100.0
2018-07-27T05:46:41.128Z,100.0
2018-07-27T05:47:41.865Z,100.0
2018-07-27T05:48:42.649Z,100.0
2018-07-27T05:49:43.327Z,100.0
2018-07-27T05:50:44.406Z,100.0
2018-07-27T05:51:45.139Z,100.0
2018-07-27T05:52:45.943Z,100.0
2018-07-27T05:53:46.608Z,100.0
2018-07-27T05:54:47.330Z,100.0
2018-07-27T05:55:48.056Z,100.0
2018-07-27T05:56:48.798Z,100.0
2018-07-27T05:57:49.534Z,100.0
2018-07-27T05:58:50.262Z,100.0
2018-07-27T05:59:51.003Z,100.0
2018-07-27T06:00:51.732Z,100.0
2018-07-27T06:01:52.477Z,100.0
2018-07-27T06:02:53.229Z,100.0
2018-07-27T06:03:53.947Z,100.0
2018-07-27T06:04:54.711Z,100.0
2018-07-27T06:05:55.419Z,100.0
2018-07-27T06:06:56.177Z,100.0
2018-07-27T06:07:56.901Z,100.0
2018-07-27T06:08:57.678Z,100.0
2018-07-27T06:09:58.416Z,100.0
2018-07-27T06:10:59.152Z,100.0
2018-07-27T06:11:59.888Z,100.0
2018-07-27T06:13:00.623Z,100.0
2018-07-27T06:14:01.359Z,100.0
2018-07-27T06:15:02.078Z,100.0
2018-07-27T06:16:02.810Z,100.0
2018-07-27T06:17:03.790Z,100.0
2018-07-27T06:18:04.598Z,100.0
2018-07-27T06:19:05.310Z,100.0
2018-07-27T06:20:06.050Z,100.0
2018-07-27T06:21:07.078Z,100.0
2018-07-27T06:22:07.776Z,100.0
2018-07-27T06:23:08.510Z,100.0
2018-07-27T06:24:09.626Z,100.0
2018-07-27T06:25:10.337Z,100.0
2018-07-27T06:26:11.070Z,99.8
2018-07-27T06:27:11.807Z,100.0
2018-07-27T06:28:12.549Z,100.0
2018-07-27T06:29:13.300Z,100.0
2018-07-27T06:30:14.012Z,99.7
2018-07-27T06:31:14.794Z,98.6
2018-07-27T06:32:15.527Z,98.0
2018-07-27T06:33:16.257Z,96.4
2018-07-27T06:34:17.003Z,95.5
2018-07-27T06:35:17.727Z,96.1
2018-07-27T06:36:18.461Z,94.0
2018-07-27T06:37:19.197Z,94.2
2018-07-27T06:38:19.927Z,94.9
2018-07-27T06:39:20.691Z,93.0
2018-07-27T06:40:21.440Z,93.4
2018-07-27T06:41:22.219Z,92.5
2018-07-27T06:42:22.955Z,91.7
2018-07-27T06:43:23.681Z,89.2
2018-07-27T06:44:24.426Z,89.4
2018-07-27T06:45:25.153Z,87.7
2018-07-27T06:46:25.906Z,87.0
2018-07-27T06:47:26.980Z,87.5
2018-07-27T06:48:27.710Z,85.6
2018-07-27T06:49:28.448Z,84.9
2018-07-27T06:50:29.180Z,84.1
2018-07-27T06:51:29.950Z,83.9
2018-07-27T06:52:30.698Z,81.5
2018-07-27T06:53:31.469Z,80.7
2018-07-27T06:54:32.212Z,79.4
2018-07-27T06:55:32.943Z,78.5
2018-07-27T06:56:33.676Z,79.3
2018-07-27T06:57:34.437Z,78.6
2018-07-27T06:58:35.170Z,76.9
2018-07-27T06:59:36.153Z,79.6
2018-07-27T07:00:36.879Z,81.3
2018-07-27T07:01:37.612Z,82.4
2018-07-27T07:02:38.389Z,79.1
2018-07-27T07:03:39.150Z,78.8
2018-07-27T07:04:39.870Z,81.0
2018-07-27T07:05:40.603Z,81.1
2018-07-27T07:06:41.330Z,81.5
2018-07-27T07:07:42.073Z,80.9
2018-07-27T07:08:42.801Z,82.3
2018-07-27T07:09:43.627Z,79.1
2018-07-27T07:10:44.707Z,78.4
2018-07-27T07:11:45.444Z,83.0
2018-07-27T07:12:46.175Z,81.7
2018-07-27T07:13:46.918Z,79.4
2018-07-27T07:14:47.979Z,75.2
2018-07-27T07:15:48.709Z,72.8
2018-07-27T07:16:49.449Z,73.4
2018-07-27T07:17:50.176Z,74.0
2018-07-27T07:18:50.996Z,73.0
2018-07-27T07:19:51.723Z,78.1
2018-07-27T07:20:52.457Z,72.3
2018-07-27T07:21:53.199Z,71.7
2018-07-27T07:22:53.949Z,69.3
2018-07-27T07:23:54.673Z,70.4
2018-07-27T07:24:55.651Z,67.4
2018-07-27T07:25:56.767Z,72.2
2018-07-27T07:26:57.111Z,72.8
2018-07-27T07:27:57.848Z,68.6
2018-07-27T07:28:58.580Z,67.6
2018-07-27T07:29:59.318Z,68.5
2018-07-27T07:31:00.071Z,68.8
2018-07-27T07:32:00.812Z,68.5
2018-07-27T07:33:01.606Z,67.0
2018-07-27T07:34:02.309Z,63.6
2018-07-27T07:35:03.050Z,64.5
2018-07-27T07:36:03.847Z,64.6
2018-07-27T07:37:04.577Z,61.8
2018-07-27T07:38:05.313Z,59.8
2018-07-27T07:39:06.067Z,61.1
2018-07-27T07:40:06.817Z,57.8
2018-07-27T07:41:07.616Z,57.9
2018-07-27T07:42:08.344Z,59.4
2018-07-27T07:43:09.085Z,57.3
2018-07-27T07:44:09.840Z,55.0
2018-07-27T07:45:10.608Z,54.6
2018-07-27T07:46:11.669Z,53.2
2018-07-27T07:47:12.405Z,52.8
2018-07-27T07:48:13.139Z,50.4
2018-07-27T07:49:13.923Z,50.5
2018-07-27T07:50:14.881Z,50.6
2018-07-27T07:51:15.874Z,50.3
2018-07-27T07:52:16.599Z,48.8
2018-07-27T07:53:17.379Z,48.0
2018-07-27T07:54:18.120Z,47.6
2018-07-27T07:55:18.864Z,48.4
2018-07-27T07:56:19.616Z,48.7
2018-07-27T07:57:20.352Z,47.7
2018-07-27T07:58:21.145Z,47.4
2018-07-27T07:59:21.889Z,46.1
2018-07-27T08:00:22.902Z,47.0
2018-07-27T08:01:23.949Z,46.5
2018-07-27T08:02:24.671Z,45.8
2018-07-27T08:03:25.508Z,45.6
2018-07-27T08:04:26.470Z,46.0
2018-07-27T08:05:27.188Z,42.1
2018-07-27T08:06:27.919Z,41.4
2018-07-27T08:07:29.533Z,40.7
2018-07-27T08:08:30.289Z,42.2
2018-07-27T08:09:31.043Z,41.5
2018-07-27T08:10:31.777Z,41.2
2018-07-27T08:11:32.567Z,42.3
2018-07-27T08:12:33.315Z,42.2
2018-07-27T08:13:34.062Z,42.3
2018-07-27T08:14:34.799Z,40.8
2018-07-27T08:15:35.544Z,40.5
2018-07-27T08:16:36.430Z,41.1
2018-07-27T08:17:37.173Z,42.3
2018-07-27T08:18:38.170Z,40.0
2018-07-27T08:19:38.892Z,39.3
2018-07-27T08:20:39.634Z,39.4
2018-07-27T08:21:40.375Z,39.0
2018-07-27T08:22:41.108Z,39.6
2018-07-27T08:23:41.846Z,39.0
2018-07-27T08:24:42.821Z,39.2
2018-07-27T08:25:43.572Z,38.9
2018-07-27T08:26:44.298Z,38.6
2018-07-27T08:27:45.041Z,36.7
2018-07-27T08:28:45.782Z,36.1
2018-07-27T08:29:46.527Z,37.2
2018-07-27T08:30:47.270Z,37.5
2018-07-27T08:31:48.425Z,35.5
2018-07-27T08:32:49.427Z,36.7
2018-07-27T08:33:50.416Z,36.2
2018-07-27T08:34:51.163Z,36.6
2018-07-27T08:35:51.906Z,36.4
2018-07-27T08:36:52.640Z,36.8
2018-07-27T08:37:53.383Z,37.7
2018-07-27T08:38:54.208Z,37.0
2018-07-27T08:39:54.969Z,37.4
2018-07-27T08:40:55.710Z,37.9
2018-07-27T08:41:56.789Z,38.4
2018-07-27T08:42:57.747Z,37.5
2018-07-27T08:43:58.739Z,36.9
2018-07-27T08:44:59.721Z,38.3
2018-07-27T08:46:00.604Z,36.3
2018-07-27T08:47:01.336Z,36.1
2018-07-27T08:48:02.081Z,35.8
2018-07-27T08:49:02.816Z,35.8
2018-07-27T08:50:03.567Z,35.3
2018-07-27T08:51:04.304Z,36.6
2018-07-27T08:52:05.040Z,37.5
2018-07-27T08:53:05.772Z,38.6
2018-07-27T08:54:06.496Z,37.9
2018-07-27T08:55:07.242Z,37.7
2018-07-27T08:56:07.979Z,37.2
2018-07-27T08:57:08.736Z,37.9
2018-07-27T08:58:09.472Z,38.4
2018-07-27T08:59:10.212Z,37.5
2018-07-27T09:00:11.037Z,37.0
2018-07-27T09:01:11.777Z,36.1
2018-07-27T09:02:12.496Z,37.9
2018-07-27T09:03:13.229Z,38.6
2018-07-27T09:04:13.973Z,36.8
2018-07-27T09:05:14.714Z,38.0
2018-07-27T09:06:15.452Z,36.7
2018-07-27T09:07:16.196Z,36.7
2018-07-27T09:08:16.938Z,36.3
2018-07-27T09:09:17.694Z,35.7
2018-07-27T09:10:18.565Z,35.8
2018-07-27T09:11:19.180Z,36.8
2018-07-27T09:12:19.928Z,35.5
2018-07-27T09:13:20.677Z,36.1
2018-07-27T09:14:21.410Z,36.2
2018-07-27T09:15:22.174Z,33.4
2018-07-27T09:16:22.911Z,33.3
2018-07-27T09:17:23.749Z,33.6
2018-07-27T09:18:24.449Z,33.7
2018-07-27T09:19:25.215Z,31.4
2018-07-27T09:20:25.939Z,31.7
2018-07-27T09:21:26.669Z,33.0
2018-07-27T09:22:27.759Z,33.6
2018-07-27T09:23:28.742Z,33.4
2018-07-27T09:24:29.510Z,33.4
2018-07-27T09:25:30.229Z,32.8
2018-07-27T09:26:30.967Z,33.5
2018-07-27T09:27:31.703Z,31.7
2018-07-27T09:28:32.457Z,33.1
2018-07-27T09:29:33.194Z,33.4
2018-07-27T09:30:34.197Z,32.1
2018-07-27T09:31:34.934Z,31.4
2018-07-27T09:32:35.723Z,30.8
2018-07-27T09:33:36.480Z,31.1
2018-07-27T09:34:37.224Z,32.7
2018-07-27T09:35:38.219Z,31.8
2018-07-27T09:36:38.959Z,30.8
2018-07-27T09:37:39.760Z,31.9
2018-07-27T09:38:40.763Z,32.0
2018-07-27T09:39:41.899Z,31.7
2018-07-27T09:40:42.631Z,33.5
2018-07-27T09:41:43.377Z,33.8
2018-07-27T09:42:44.127Z,32.6
2018-07-27T09:43:44.888Z,33.0
2018-07-27T09:44:45.971Z,33.2
2018-07-27T09:45:46.714Z,32.9
2018-07-27T09:46:47.460Z,32.5
2018-07-27T09:47:48.204Z,32.1
2018-07-27T09:48:48.960Z,31.2
2018-07-27T09:49:49.750Z,30.8
2018-07-27T09:50:50.524Z,30.8
2018-07-27T09:51:51.251Z,30.6
2018-07-27T09:52:52.001Z,29.6
2018-07-27T09:53:52.774Z,30.0
2018-07-27T09:54:53.524Z,30.3
2018-07-27T09:55:54.255Z,30.6
2018-07-27T09:56:55.022Z,29.7
2018-07-27T09:57:55.761Z,30.4
2018-07-27T09:58:56.491Z,30.9
2018-07-27T09:59:57.251Z,30.6
2018-07-27T10:00:57.998Z,31.9
2018-07-27T10:01:58.771Z,30.2
2018-07-27T10:02:59.540Z,31.0
2018-07-27T10:04:00.276Z,31.8
2018-07-27T10:05:01.021Z,30.9
2018-07-27T10:06:01.758Z,30.0
2018-07-27T10:07:02.549Z,30.3
2018-07-27T10:08:03.294Z,30.1
2018-07-27T10:09:04.311Z,30.5
2018-07-27T10:10:05.053Z,29.3
2018-07-27T10:11:05.796Z,29.7
2018-07-27T10:12:06.542Z,29.9
2018-07-27T10:13:07.277Z,29.9
2018-07-27T10:14:08.019Z,28.9
2018-07-27T10:15:08.762Z,29.6
2018-07-27T10:16:09.502Z,29.5
2018-07-27T10:17:10.253Z,29.8
2018-07-27T10:18:10.995Z,29.8
2018-07-27T10:19:11.993Z,30.4
2018-07-27T10:20:12.732Z,31.0
2018-07-27T10:21:13.468Z,30.9
2018-07-27T10:22:14.455Z,29.5
2018-07-27T10:23:15.208Z,30.4
2018-07-27T10:24:15.948Z,32.1
2018-07-27T10:25:16.679Z,32.5
2018-07-27T10:26:17.475Z,32.3
2018-07-27T10:27:18.221Z,32.0
2018-07-27T10:28:18.963Z,32.4
2018-07-27T10:29:19.699Z,32.1
2018-07-27T10:30:21.182Z,32.9
2018-07-27T10:31:21.985Z,32.1
2018-07-27T10:32:22.703Z,30.8
2018-07-27T10:33:23.440Z,30.8
2018-07-27T10:34:24.189Z,28.9
2018-07-27T10:35:24.929Z,29.6
2018-07-27T10:36:25.711Z,30.0
2018-07-27T10:37:26.462Z,30.6
2018-07-27T10:38:27.460Z,30.2
2018-07-27T10:39:28.207Z,30.5
2018-07-27T10:40:29.379Z,30.2
2018-07-27T10:41:30.455Z,30.6
2018-07-27T10:42:31.203Z,30.8
2018-07-27T10:43:31.994Z,30.5
2018-07-27T10:44:32.746Z,29.7
2018-07-27T10:45:33.866Z,29.4
2018-07-27T10:46:34.750Z,28.8
2018-07-27T10:47:35.512Z,29.4
2018-07-27T10:48:36.251Z,29.3
2018-07-27T10:49:37.437Z,28.6
2018-07-27T10:50:38.219Z,28.8
2018-07-27T10:51:38.960Z,28.1
2018-07-27T10:52:39.705Z,28.3
2018-07-27T10:53:40.928Z,27.7
2018-07-27T10:54:41.696Z,26.8
2018-07-27T10:55:42.443Z,27.5
2018-07-27T10:56:43.185Z,28.5
2018-07-27T10:57:43.933Z,28.2
2018-07-27T10:58:44.668Z,27.7
2018-07-27T10:59:45.407Z,27.9
2018-07-27T11:00:46.155Z,27.8
2018-07-27T11:01:46.883Z,27.4
2018-07-27T11:02:47.621Z,28.4
2018-07-27T11:03:48.745Z,27.8
2018-07-27T11:04:49.505Z,28.6
2018-07-27T11:05:50.252Z,26.8
2018-07-27T11:06:50.993Z,28.0
2018-07-27T11:07:51.731Z,28.1
2018-07-27T11:08:52.503Z,27.4
2018-07-27T11:09:53.244Z,26.4
2018-07-27T11:10:54.255Z,26.9
2018-07-27T11:11:55.048Z,27.6
2018-07-27T11:12:55.781Z,26.7
2018-07-27T11:13:57.092Z,27.0
2018-07-27T11:14:57.894Z,26.9
2018-07-27T11:15:58.681Z,27.7
2018-07-27T11:16:59.420Z,28.2
2018-07-27T11:18:00.189Z,27.8
2018-07-27T11:19:00.963Z,28.4
2018-07-27T11:20:01.697Z,27.6
2018-07-27T11:21:02.445Z,26.8
2018-07-27T11:22:03.186Z,25.9
2018-07-27T11:23:03.932Z,27.2
2018-07-27T11:24:04.684Z,27.8
2018-07-27T11:25:05.432Z,25.6
2018-07-27T11:26:06.174Z,25.2
2018-07-27T11:27:06.916Z,25.5
2018-07-27T11:28:07.668Z,25.2
2018-07-27T11:29:08.447Z,25.2
2018-07-27T11:30:09.197Z,26.3
2018-07-27T11:31:10.191Z,27.7
2018-07-27T11:32:10.931Z,27.5
2018-07-27T11:33:11.672Z,26.7
2018-07-27T11:34:12.439Z,26.9
2018-07-27T11:35:13.185Z,26.4
2018-07-27T11:36:13.947Z,26.7
2018-07-27T11:37:14.730Z,25.5
2018-07-27T11:38:15.440Z,25.0
2018-07-27T11:39:16.225Z,25.1
2018-07-27T11:40:16.969Z,24.5
2018-07-27T11:41:17.721Z,24.2
2018-07-27T11:42:18.483Z,24.5
2018-07-27T11:43:19.228Z,24.2
2018-07-27T11:44:20.036Z,24.4
2018-07-27T11:45:20.782Z,23.2
2018-07-27T11:46:21.571Z,23.4
2018-07-27T11:47:22.353Z,22.2
2018-07-27T11:48:23.349Z,22.6
2018-07-27T11:49:24.175Z,21.7
2018-07-27T11:50:24.904Z,23.3
2018-07-27T11:51:25.652Z,21.9
2018-07-27T11:52:26.387Z,23.2
2018-07-27T11:53:27.138Z,22.5
2018-07-27T11:54:28.241Z,21.8
2018-07-27T11:55:29.004Z,21.1
2018-07-27T11:56:29.755Z,21.2
2018-07-27T11:57:30.484Z,21.7
2018-07-27T11:58:31.228Z,22.6
2018-07-27T11:59:31.991Z,22.6
2018-07-27T12:00:32.740Z,23.4
2018-07-27T12:01:33.545Z,22.0
2018-07-27T12:02:34.231Z,21.7
2018-07-27T12:03:34.979Z,23.1
2018-07-27T12:04:35.722Z,21.9
2018-07-27T12:05:36.460Z,22.9
2018-07-27T12:06:37.447Z,23.2
2018-07-27T12:07:38.188Z,23.3
2018-07-27T12:08:38.927Z,23.8
2018-07-27T12:09:39.666Z,23.3
2018-07-27T12:10:40.410Z,22.9
2018-07-27T12:11:41.219Z,22.1
2018-07-27T12:12:41.966Z,22.6
2018-07-27T12:13:42.712Z,22.6
2018-07-27T12:14:43.548Z,23.4
2018-07-27T12:15:44.196Z,22.0
2018-07-27T12:16:44.936Z,21.8
2018-07-27T12:17:45.682Z,21.6
2018-07-27T12:18:46.432Z,20.3
2018-07-27T12:19:47.177Z,21.8
2018-07-27T12:20:48.098Z,21.7
2018-07-27T12:21:49.043Z,21.3
2018-07-27T12:22:49.523Z,21.8
2018-07-27T12:23:50.274Z,21.9
2018-07-27T12:24:51.028Z,21.5
2018-07-27T12:25:51.761Z,21.9
2018-07-27T12:26:52.844Z,22.9
2018-07-27T12:27:56.755Z,22.4
2018-07-27T12:28:57.552Z,23.2
2018-07-27T12:29:58.290Z,23.3
2018-07-27T12:30:59.317Z,22.5
2018-07-27T12:32:00.178Z,21.9
2018-07-27T12:33:01.048Z,22.2
2018-07-27T12:34:01.797Z,21.9
2018-07-27T12:35:02.540Z,22.0
2018-07-27T12:36:03.277Z,22.7
2018-07-27T12:37:04.025Z,23.4
2018-07-27T12:38:04.766Z,21.8
2018-07-27T12:39:05.851Z,22.5
2018-07-27T12:40:06.571Z,22.8
2018-07-27T12:41:07.320Z,22.6
2018-07-27T12:42:08.070Z,23.3
2018-07-27T12:43:08.807Z,23.1
2018-07-27T12:44:09.564Z,22.9
2018-07-27T12:45:10.319Z,24.1
2018-07-27T12:46:11.063Z,23.4
2018-07-27T12:47:11.807Z,23.5
2018-07-27T12:48:12.571Z,23.3
2018-07-27T12:49:13.591Z,23.4
2018-07-27T12:50:14.328Z,22.4
2018-07-27T12:51:15.104Z,21.8
2018-07-27T12:52:15.806Z,22.7
2018-07-27T12:53:16.830Z,23.2
2018-07-27T12:54:17.598Z,23.4
2018-07-27T12:55:18.348Z,23.3
2018-07-27T12:56:19.091Z,23.0
2018-07-27T12:57:19.839Z,23.3
2018-07-27T12:58:20.647Z,23.6
2018-07-27T12:59:21.421Z,23.0
2018-07-27T13:00:22.147Z,22.8
2018-07-27T13:01:22.886Z,23.7
2018-07-27T13:02:23.638Z,23.8
2018-07-27T13:03:24.432Z,23.6
2018-07-27T13:04:25.173Z,24.3
2018-07-27T13:05:25.956Z,24.6
2018-07-27T13:06:26.664Z,23.8
2018-07-27T13:07:27.408Z,23.4
2018-07-27T13:08:28.168Z,22.4
2018-07-27T13:09:28.908Z,22.9
2018-07-27T13:10:29.637Z,22.6
2018-07-27T13:11:30.388Z,22.7
2018-07-27T13:12:31.129Z,22.2
2018-07-27T13:13:32.141Z,22.8
2018-07-27T13:15:34.530Z,22.4
2018-07-27T13:16:35.311Z,23.5
2018-07-27T13:17:36.057Z,23.0
2018-07-27T13:18:36.798Z,23.9
2018-07-27T13:19:37.551Z,23.8
2018-07-27T13:20:38.291Z,25.4
2018-07-27T13:21:39.059Z,25.1
2018-07-27T13:22:39.808Z,24.6
2018-07-27T13:23:40.801Z,24.3
2018-07-27T13:25:43.297Z,25.6
2018-07-27T13:26:44.065Z,25.8
2018-07-27T13:27:44.803Z,25.2
2018-07-27T13:28:45.555Z,25.5
2018-07-27T13:29:46.346Z,25.5